Time;durP1;ratioP1;P1;durP2;ratioP2;P2;SDS_P1;SDS_P2;PMS_P1;PMS_P2;Temp;Humidity;BMP_temperature;BMP_pressure;BME280_temperature;BME280_humidity;BME280_pressure;Samples;Min_cycle;Max_cycle;Signal;HPM_P1;HPM_P2
2022/03/06 00:00:46;;;;;;;10.25;8.30;;;;;;;5.30;37.79;100681.47;10333776;28;20053;-61
2022/03/06 00:05:48;;;;;;;9.32;7.63;;;;;;;5.25;37.89;100689.59;10338378;28;20484;-63
2022/03/06 00:10:50;;;;;;;8.93;6.70;;;;;;;5.19;38.14;100684.66;10337467;28;20639;-59
2022/03/06 00:15:51;;;;;;;8.52;7.47;;;;;;;5.14;38.03;100686.69;10340678;28;20049;-60
2022/03/06 00:20:54;;;;;;;9.32;7.85;;;;;;;5.07;37.86;100674.72;10339586;28;20061;-60
2022/03/06 00:25:56;;;;;;;7.95;6.88;;;;;;;5.26;38.21;100696.59;10339469;28;20053;-60
2022/03/06 00:30:57;;;;;;;6.88;6.18;;;;;;;5.29;37.72;100680.59;10335321;28;20109;-61
2022/03/06 00:35:58;;;;;;;9.48;7.60;;;;;;;5.34;37.49;100692.72;10338244;28;20053;-62
2022/03/06 00:41:00;;;;;;;7.07;6.38;;;;;;;5.19;37.65;100695.19;10343215;28;20129;-59
2022/03/06 00:46:01;;;;;;;6.95;6.25;;;;;;;5.24;37.84;100700.25;10340622;28;20187;-60
2022/03/06 00:51:03;;;;;;;8.75;6.72;;;;;;;5.21;37.09;100709.19;10338768;28;20258;-61
2022/03/06 00:56:04;;;;;;;7.55;6.40;;;;;;;5.14;37.50;100690.16;10340155;28;20055;-61
2022/03/06 01:01:06;;;;;;;7.65;6.10;;;;;;;5.28;36.61;100705.31;10337821;28;20243;-61
2022/03/06 01:06:08;;;;;;;8.13;6.05;;;;;;;5.06;36.74;100679.16;10335770;28;20057;-61
2022/03/06 01:11:10;;;;;;;6.88;5.95;;;;;;;5.23;36.91;100701.19;10337728;28;20111;-61
2022/03/06 01:16:11;;;;;;;6.47;5.85;;;;;;;5.24;37.06;100695.84;10337396;28;20594;-60
2022/03/06 01:21:13;;;;;;;8.80;7.10;;;;;;;5.22;37.33;100697.69;10341988;28;20072;-60
2022/03/06 01:26:17;;;;;;;7.88;5.90;;;;;;;5.22;37.51;100705.59;10339502;28;20069;-60
2022/03/06 01:31:18;;;;;;;8.00;6.75;;;;;;;5.25;37.42;100699.31;10337493;28;20056;-60
2022/03/06 01:36:20;;;;;;;7.72;6.78;;;;;;;5.30;37.28;100692.88;10336754;28;20570;-60
2022/03/06 01:41:24;;;;;;;8.07;6.68;;;;;;;5.29;37.62;100679.75;10335763;28;20136;-60
2022/03/06 01:46:25;;;;;;;8.07;7.15;;;;;;;5.23;37.69;100683.56;10341703;28;20151;-61
2022/03/06 01:51:27;;;;;;;9.85;7.50;;;;;;;5.19;38.03;100678.53;10336913;28;20046;-61
2022/03/06 01:56:28;;;;;;;9.65;7.47;;;;;;;5.15;37.98;100688.41;10335542;28;20794;-60
2022/03/06 02:01:30;;;;;;;8.60;7.18;;;;;;;5.19;38.62;100689.09;10337461;28;20057;-60
2022/03/06 02:06:32;;;;;;;9.13;7.85;;;;;;;5.20;38.41;100701.34;10333505;28;20053;-61
2022/03/06 02:11:34;;;;;;;9.70;8.70;;;;;;;5.07;38.70;100695.84;10333154;28;20083;-61
2022/03/06 02:16:36;;;;;;;9.15;8.25;;;;;;;5.14;38.73;100698.09;10348071;28;20145;-61
2022/03/06 02:21:37;;;;;;;9.48;7.80;;;;;;;5.11;38.64;100695.59;10363144;28;20069;-61
2022/03/06 02:26:38;;;;;;;9.30;8.15;;;;;;;5.00;38.96;100673.31;10342459;28;20053;-59
2022/03/06 02:31:40;;;;;;;10.30;8.38;;;;;;;5.14;39.08;100687.53;10334170;28;20050;-60
2022/03/06 02:36:41;;;;;;;8.68;7.78;;;;;;;5.02;38.95;100682.03;10336936;28;20069;-61
2022/03/06 02:41:43;;;;;;;10.32;8.23;;;;;;;5.06;39.19;100688.84;10338282;28;20053;-61
2022/03/06 02:46:45;;;;;;;10.50;8.10;;;;;;;5.08;39.42;100698.41;10335731;28;20057;-61
2022/03/06 02:51:47;;;;;;;9.50;8.57;;;;;;;5.03;39.34;100683.72;10338172;28;20065;-60
2022/03/06 02:56:49;;;;;;;10.15;8.35;;;;;;;4.96;39.53;100688.47;10335076;28;20651;-60
2022/03/06 03:01:50;;;;;;;8.55;7.65;;;;;;;4.48;39.30;100619.63;10336045;28;20057;-60
2022/03/06 03:06:52;;;;;;;10.15;9.02;;;;;;;4.86;39.66;100681.94;10334555;28;20120;-64
2022/03/06 03:11:57;;;;;;;10.40;8.48;;;;;;;4.88;39.92;100677.41;10335026;28;20045;-60
2022/03/06 03:17:03;;;;;;;8.13;7.32;;;;;;;4.72;39.75;100685.25;10329754;28;20049;-61
2022/03/06 03:22:05;;;;;;;9.73;8.73;;;;;;;4.47;40.07;100670.63;10337970;28;20057;-61
2022/03/06 03:27:07;;;;;;;8.93;7.90;;;;;;;4.58;39.98;100694.69;10339706;28;20095;-62
2022/03/06 03:32:08;;;;;;;10.10;8.65;;;;;;;4.47;40.22;100681.16;10342527;28;20156;-61
2022/03/06 03:37:09;;;;;;;9.93;7.93;;;;;;;4.45;39.98;100698.00;10345220;28;20089;-60
2022/03/06 03:42:11;;;;;;;9.85;7.78;;;;;;;4.36;40.06;100705.41;10344432;28;20372;-59
2022/03/06 03:47:12;;;;;;;9.45;7.78;;;;;;;4.11;40.06;100687.25;10345275;28;20050;-62
2022/03/06 03:52:14;;;;;;;9.95;8.45;;;;;;;4.12;40.18;100702.16;10344014;28;20141;-61
2022/03/06 03:57:15;;;;;;;9.85;7.95;;;;;;;4.15;40.29;100716.97;10346256;28;20140;-62
2022/03/06 04:02:17;;;;;;;9.07;8.10;;;;;;;4.11;40.85;100718.88;10340715;28;20049;-59
2022/03/06 04:07:18;;;;;;;11.02;9.93;;;;;;;3.89;40.95;100688.25;10343348;28;20188;-62
2022/03/06 04:12:20;;;;;;;10.48;9.35;;;;;;;4.09;40.92;100743.59;10337595;28;20049;-59
2022/03/06 04:17:21;;;;;;;11.43;9.20;;;;;;;3.79;41.08;100694.88;10338460;28;20515;-60
2022/03/06 04:22:22;;;;;;;9.02;8.13;;;;;;;3.97;41.39;100723.94;10340350;28;20421;-60
2022/03/06 04:27:24;;;;;;;10.30;9.15;;;;;;;3.95;41.04;100725.75;10344228;28;20061;-59
2022/03/06 04:32:25;;;;;;;9.90;8.88;;;;;;;4.03;41.11;100750.00;10339601;28;20284;-60
2022/03/06 04:37:27;;;;;;;11.18;8.98;;;;;;;4.03;41.25;100755.28;10338180;28;20090;-63
2022/03/06 04:42:29;;;;;;;10.48;9.45;;;;;;;3.98;41.58;100763.38;10337508;28;20054;-61
2022/03/06 04:47:30;;;;;;;10.32;9.23;;;;;;;3.88;41.37;100749.75;10340698;28;20199;-62
2022/03/06 04:52:31;;;;;;;10.77;8.43;;;;;;;3.70;41.91;100740.03;10338018;28;20155;-61
2022/03/06 04:57:33;;;;;;;8.70;7.80;;;;;;;3.66;41.44;100749.88;10338356;28;20108;-60
2022/03/06 05:02:34;;;;;;;9.48;8.57;;;;;;;3.72;41.49;100759.25;10339217;28;20064;-61
2022/03/06 05:07:36;;;;;;;9.75;8.50;;;;;;;3.70;41.26;100763.75;10334986;28;20107;-64
2022/03/06 05:12:41;;;;;;;10.27;8.55;;;;;;;3.74;41.09;100765.31;10333730;28;20933;-60
2022/03/06 05:17:42;;;;;;;9.13;7.70;;;;;;;3.85;41.27;100760.44;10336735;28;20404;-61
2022/03/06 05:22:44;;;;;;;9.23;8.02;;;;;;;3.89;41.39;100764.63;10339045;28;20367;-61
2022/03/06 05:27:45;;;;;;;9.10;7.93;;;;;;;3.74;40.87;100773.22;10335410;28;20180;-62
2022/03/06 05:32:47;;;;;;;8.57;7.60;;;;;;;3.61;40.93;100766.78;10333166;28;20088;-60
2022/03/06 05:37:49;;;;;;;9.15;8.25;;;;;;;3.54;41.33;100774.94;10335219;28;20042;-60
2022/03/06 05:42:50;;;;;;;11.48;9.13;;;;;;;3.45;41.38;100772.72;10339198;28;20089;-62
2022/03/06 05:47:52;;;;;;;8.98;8.07;;;;;;;3.40;41.45;100781.72;10339822;28;20574;-59
2022/03/06 05:52:53;;;;;;;9.63;8.48;;;;;;;3.36;41.79;100791.50;10338997;28;20303;-64
2022/03/06 05:57:55;;;;;;;9.00;8.05;;;;;;;3.34;42.20;100781.03;10335535;28;20827;-59
2022/03/06 06:02:56;;;;;;;12.23;9.18;;;;;;;3.41;42.15;100802.72;10340810;28;20061;-59
2022/03/06 06:07:58;;;;;;;9.43;8.40;;;;;;;3.41;42.15;100805.34;10335803;28;20058;-62
2022/03/06 06:13:00;;;;;;;9.82;8.82;;;;;;;3.53;42.23;100815.34;10337301;28;20130;-63
2022/03/06 06:18:01;;;;;;;10.60;9.50;;;;;;;3.55;42.53;100817.91;10337228;28;20053;-63
2022/03/06 06:23:03;;;;;;;9.50;8.50;;;;;;;3.48;42.36;100812.06;10336979;28;20060;-60
2022/03/06 06:28:05;;;;;;;9.52;8.50;;;;;;;3.61;42.84;100816.81;10338766;28;20061;-63
2022/03/06 06:33:06;;;;;;;10.75;9.57;;;;;;;3.65;42.78;100807.88;10336763;28;20058;-63
2022/03/06 06:38:08;;;;;;;10.52;9.43;;;;;;;3.74;42.70;100807.47;10336825;28;20595;-61
2022/03/06 06:43:09;;;;;;;12.40;10.18;;;;;;;3.88;42.83;100814.75;10334651;28;21179;-62
2022/03/06 06:48:11;;;;;;;10.65;9.52;;;;;;;3.92;42.63;100832.16;10339736;28;20163;-62
2022/03/06 06:53:12;;;;;;;13.95;11.70;;;;;;;3.89;42.87;100843.66;10338795;28;20148;-62
2022/03/06 06:58:13;;;;;;;11.50;10.43;;;;;;;3.92;42.86;100841.81;10345232;28;20160;-61
2022/03/06 07:03:15;;;;;;;11.18;9.95;;;;;;;3.96;43.03;100843.38;10341116;28;20754;-63
2022/03/06 07:08:17;;;;;;;12.85;11.48;;;;;;;3.97;43.08;100839.84;10338521;28;20571;-62
2022/03/06 07:13:18;;;;;;;11.02;9.93;;;;;;;4.11;42.95;100852.41;10337631;28;20412;-61
2022/03/06 07:18:20;;;;;;;10.98;9.88;;;;;;;4.10;42.34;100842.78;10343617;28;20242;-62
2022/03/06 07:23:21;;;;;;;11.23;10.02;;;;;;;4.28;42.75;100844.63;10339138;28;20054;-61
2022/03/06 07:28:23;;;;;;;12.05;10.65;;;;;;;4.45;42.38;100843.84;10342590;28;20053;-61
2022/03/06 07:33:25;;;;;;;10.27;9.25;;;;;;;4.57;42.49;100824.81;10343686;28;20054;-60
2022/03/06 07:38:26;;;;;;;13.48;10.70;;;;;;;5.11;41.58;100853.09;10345561;28;20115;-60
2022/03/06 07:43:28;;;;;;;12.38;10.75;;;;;;;5.32;40.44;100838.00;10340393;28;20521;-62
2022/03/06 07:48:29;;;;;;;10.63;9.52;;;;;;;5.58;39.58;100855.16;10339586;28;20821;-63
2022/03/06 07:53:30;;;;;;;11.00;9.90;;;;;;;5.78;39.56;100853.31;10337081;28;20073;-62
2022/03/06 07:58:32;;;;;;;11.20;9.65;;;;;;;5.87;39.10;100850.22;10342772;28;20049;-61
2022/03/06 08:03:33;;;;;;;10.73;9.63;;;;;;;6.05;38.70;100852.88;10342351;28;20088;-60
2022/03/06 08:08:35;;;;;;;10.95;9.60;;;;;;;6.33;38.25;100847.81;10347204;28;20524;-61
2022/03/06 08:13:36;;;;;;;11.02;9.90;;;;;;;6.57;37.84;100850.09;10338053;28;20161;-60
2022/03/06 08:18:39;;;;;;;11.15;9.98;;;;;;;6.69;36.99;100848.56;10344945;28;20087;-59
2022/03/06 08:23:40;;;;;;;11.98;10.15;;;;;;;6.96;37.20;100856.78;10337576;28;20064;-61
2022/03/06 08:28:42;;;;;;;11.18;9.93;;;;;;;7.20;36.45;100865.13;10339631;28;20079;-60
2022/03/06 08:33:44;;;;;;;10.55;9.55;;;;;;;7.39;35.97;100866.75;10340923;28;20505;-59
2022/03/06 08:38:45;;;;;;;12.82;11.20;;;;;;;7.57;35.81;100878.09;10335347;28;20108;-59
2022/03/06 08:43:47;;;;;;;11.15;10.05;;;;;;;7.77;35.90;100867.16;10334413;28;20049;-61
2022/03/06 08:48:48;;;;;;;11.35;10.10;;;;;;;7.76;36.27;100873.41;10338160;28;20568;-61
2022/03/06 08:53:50;;;;;;;11.13;10.02;;;;;;;7.82;36.45;100871.34;10336806;28;20069;-61
2022/03/06 08:58:51;;;;;;;11.57;10.35;;;;;;;8.33;35.62;100871.78;10339256;28;20329;-62
2022/03/06 09:03:53;;;;;;;11.15;9.88;;;;;;;8.70;34.61;100869.53;10338394;28;20116;-60
2022/03/06 09:08:54;;;;;;;11.00;9.85;;;;;;;8.86;34.98;100888.03;10342174;28;20076;-63
2022/03/06 09:13:56;;;;;;;10.52;9.43;;;;;;;9.16;33.21;100871.09;10341278;28;21105;-60
2022/03/06 09:18:57;;;;;;;11.27;10.07;;;;;;;9.54;32.40;100871.22;10338968;28;20149;-61
2022/03/06 09:24:00;;;;;;;10.95;9.63;;;;;;;9.88;32.09;100868.97;10342264;28;20103;-61
2022/03/06 09:29:02;;;;;;;10.13;9.23;;;;;;;10.19;31.13;100872.19;10339980;28;20753;-61
2022/03/06 09:34:04;;;;;;;9.50;8.07;;;;;;;10.16;31.24;100867.06;10340346;28;20278;-61
2022/03/06 09:39:19;;;;;;;10.55;9.55;;;;;;;10.37;30.95;100878.09;10338033;28;20821;-61
2022/03/06 09:44:23;;;;;;;10.18;9.27;;;;;;;10.99;29.79;100880.84;10333732;28;20071;-62
2022/03/06 09:49:25;;;;;;;9.27;8.15;;;;;;;11.47;28.80;100886.22;10336390;28;20416;-62
2022/03/06 09:54:27;;;;;;;9.55;8.65;;;;;;;11.72;27.99;100863.03;10334310;28;20064;-61
2022/03/06 09:59:31;;;;;;;9.63;8.73;;;;;;;12.08;26.94;100867.41;10338004;28;20652;-61
2022/03/06 10:04:34;;;;;;;8.77;7.97;;;;;;;12.52;26.60;100873.78;10336054;28;20057;-61
2022/03/06 10:09:54;;;;;;;8.37;7.57;;;;;;;13.44;25.54;100867.34;10338274;28;20129;-60
2022/03/06 10:15:07;;;;;;;7.85;7.25;;;;;;;14.35;23.62;100864.16;10339024;28;20050;-61
2022/03/06 10:20:10;;;;;;;8.63;7.93;;;;;;;18.47;19.33;100860.06;10343576;28;20129;-60
2022/03/06 10:25:16;;;;;;;8.57;7.78;;;;;;;16.25;21.25;100854.13;10334446;28;20053;-60
2022/03/06 10:30:29;;;;;;;6.28;5.72;;;;;;;12.62;22.46;100857.88;10339710;28;20046;-60
2022/03/06 10:35:42;;;;;;;7.57;6.95;;;;;;;11.46;24.25;100863.19;10337404;28;20572;-62
2022/03/06 10:40:44;;;;;;;7.47;6.88;;;;;;;11.47;24.33;100860.41;10337591;28;20049;-61
2022/03/06 10:45:48;;;;;;;7.35;6.75;;;;;;;11.23;24.37;100854.22;10336661;28;20049;-61
2022/03/06 10:50:59;;;;;;;6.70;6.10;;;;;;;11.00;25.17;100842.59;10337888;28;20045;-59
2022/03/06 10:56:13;;;;;;;7.15;6.55;;;;;;;12.31;24.27;100862.97;10338731;28;20610;-60
2022/03/06 11:01:15;;;;;;;7.25;6.65;;;;;;;16.30;19.69;100855.53;10333522;28;20558;-61
2022/03/06 11:06:20;;;;;;;6.50;5.90;;;;;;;16.90;19.61;100844.41;10329605;28;20140;-59
2022/03/06 11:11:22;;;;;;;6.13;5.63;;;;;;;17.47;17.91;100850.41;10335973;28;20161;-60
2022/03/06 11:16:24;;;;;;;6.22;5.63;;;;;;;23.51;13.73;100831.13;10338657;28;20064;-60
2022/03/06 11:21:28;;;;;;;6.55;6.00;;;;;;;27.12;11.58;100829.16;10336732;28;20061;-61
2022/03/06 11:26:54;;;;;;;5.43;5.03;;;;;;;28.45;9.59;100812.69;10335342;28;20591;-63
2022/03/06 11:32:04;;;;;;;7.32;6.63;;;;;;;27.15;10.21;100815.03;10331707;28;20053;-62
2022/03/06 11:37:10;;;;;;;6.20;5.70;;;;;;;29.36;9.16;100818.25;10332963;28;20057;-61
2022/03/06 11:42:50;;;;;;;5.57;5.18;;;;;;;30.82;8.08;100810.31;10332548;28;20171;-61
2022/03/06 11:47:51;;;;;;;5.65;5.25;;;;;;;31.50;7.54;100802.22;10339153;28;20052;-63
2022/03/06 11:52:53;;;;;;;5.90;5.45;;;;;;;30.37;8.48;100772.56;10341743;28;20070;-62
2022/03/06 11:57:54;;;;;;;5.22;4.72;;;;;;;30.91;7.88;100786.88;10344744;28;20103;-60
2022/03/06 12:02:58;;;;;;;5.55;5.15;;;;;;;31.81;7.09;100791.72;10344162;28;20053;-62
2022/03/06 12:08:00;;;;;;;4.78;4.38;;;;;;;23.75;11.70;100793.69;10344577;28;20045;-61
2022/03/06 12:13:01;;;;;;;5.57;5.18;;;;;;;22.55;12.81;100785.16;10336283;28;20080;-64
2022/03/06 12:18:04;;;;;;;;;;;;;;;28.56;9.07;100775.50;10337362;28;20050;-61
2022/03/06 12:23:07;;;;;;;7.25;6.55;;;;;;;30.94;7.54;100760.81;10327896;28;21138;-61
2022/03/06 12:28:10;;;;;;;6.10;5.70;;;;;;;32.22;7.38;100754.63;10324475;28;20054;-62
2022/03/06 12:33:29;;;;;;;6.25;5.40;;;;;;;32.14;6.96;100741.28;10335644;28;20058;-61
2022/03/06 12:38:32;;;;;;;5.10;4.70;;;;;;;32.24;7.07;100748.84;10340010;28;20049;-61
2022/03/06 12:43:44;;;;;;;4.90;4.50;;;;;;;33.42;6.26;100752.84;10340703;28;20050;-63
2022/03/06 12:48:46;;;;;;;5.75;5.25;;;;;;;33.33;6.43;100729.63;10339423;28;20053;-62
2022/03/06 12:53:48;;;;;;;5.72;5.32;;;;;;;33.27;6.53;100736.19;10343542;28;20053;-62
2022/03/06 12:58:49;;;;;;;4.65;4.35;;;;;;;25.22;10.14;100724.44;10339334;28;20049;-61
2022/03/06 13:03:50;;;;;;;5.40;5.00;;;;;;;30.35;7.79;100733.56;10336713;28;20289;-59
2022/03/06 13:08:52;;;;;;;5.60;5.10;;;;;;;28.92;8.50;100714.31;10338954;28;20053;-60
2022/03/06 13:14:02;;;;;;;4.47;4.18;;;;;;;31.66;7.17;100726.28;10339843;28;20532;-59
2022/03/06 13:19:06;;;;;;;5.18;4.80;;;;;;;32.28;6.83;100722.47;10341264;28;20087;-59
2022/03/06 13:24:09;;;;;;;4.53;4.18;;;;;;;29.57;8.19;100714.56;10339905;28;20061;-60
2022/03/06 13:29:14;;;;;;;4.65;4.35;;;;;;;27.08;9.60;100694.06;10338809;28;20053;-61
2022/03/06 13:34:16;;;;;;;5.03;4.63;;;;;;;22.46;12.28;100730.16;10340145;28;20057;-59
2022/03/06 13:39:19;;;;;;;5.25;4.85;;;;;;;19.01;15.05;100717.66;10334969;28;20620;-60
2022/03/06 13:44:22;;;;;;;5.80;5.22;;;;;;;18.51;15.73;100724.78;10341440;28;20144;-62
2022/03/06 13:49:24;;;;;;;5.03;4.45;;;;;;;19.86;15.07;100718.28;10339013;28;20064;-60
2022/03/06 13:54:31;;;;;;;6.40;5.90;;;;;;;18.50;16.23;100724.97;10345376;28;20057;-62
2022/03/06 13:59:36;;;;;;;7.03;6.47;;;;;;;16.53;18.78;100719.81;10357118;28;20653;-61
2022/03/06 14:04:38;;;;;;;7.93;7.25;;;;;;;15.38;19.93;100724.44;10341630;28;20058;-60
2022/03/06 14:09:48;;;;;;;7.85;7.20;;;;;;;14.33;21.57;100728.56;10340181;28;20255;-63
2022/03/06 14:14:49;;;;;;;7.40;6.80;;;;;;;13.46;22.12;100715.63;10336819;28;20046;-60
2022/03/06 14:19:58;;;;;;;8.27;7.57;;;;;;;13.04;22.29;100727.09;10336823;28;20045;-60
2022/03/06 14:24:59;;;;;;;7.97;7.38;;;;;;;13.40;22.23;100734.88;10336911;28;20127;-60
2022/03/06 14:30:01;;;;;;;9.15;8.45;;;;;;;12.90;22.81;100743.44;10333537;28;20232;-59
2022/03/06 14:35:02;;;;;;;8.35;7.65;;;;;;;12.11;23.67;100743.56;10338348;28;20049;-60
2022/03/06 14:40:05;;;;;;;8.63;7.90;;;;;;;11.87;23.96;100738.31;10329717;28;20674;-60
2022/03/06 14:45:07;;;;;;;8.95;8.20;;;;;;;11.27;24.56;100736.66;10335307;28;20375;-60
2022/03/06 14:50:08;;;;;;;8.80;8.10;;;;;;;11.24;24.40;100739.50;10337233;28;20050;-60
2022/03/06 14:55:12;;;;;;;8.55;7.90;;;;;;;11.38;24.30;100753.59;10333609;28;20061;-61
2022/03/06 15:00:13;;;;;;;11.52;10.52;;;;;;;11.04;24.94;100750.84;10328953;28;20176;-61
2022/03/06 15:05:15;;;;;;;12.63;11.63;;;;;;;10.90;25.76;100755.38;10336400;28;20129;-66
2022/03/06 15:10:16;;;;;;;13.38;12.30;;;;;;;10.66;26.28;100762.47;10334773;28;20226;-59
2022/03/06 15:15:18;;;;;;;13.82;12.63;;;;;;;10.36;26.63;100750.44;10332573;28;20176;-59
2022/03/06 15:20:19;;;;;;;12.77;11.80;;;;;;;10.11;26.81;100773.44;10338372;28;20182;-61
2022/03/06 15:25:21;;;;;;;17.35;15.68;;;;;;;9.95;27.26;100767.47;10343449;28;20160;-61
2022/03/06 15:30:23;;;;;;;11.65;10.75;;;;;;;9.67;27.60;100769.41;10346313;28;20057;-61
2022/03/06 15:35:24;;;;;;;12.73;11.63;;;;;;;9.32;28.11;100772.63;10344718;28;20211;-62
2022/03/06 15:40:26;;;;;;;12.10;11.20;;;;;;;9.42;28.32;100763.09;10345439;28;20083;-62
2022/03/06 15:45:27;;;;;;;12.15;11.10;;;;;;;9.44;28.00;100777.09;10343387;28;20054;-61
2022/03/06 15:50:29;;;;;;;13.20;11.90;;;;;;;9.12;28.99;100776.63;10338356;28;20049;-61
2022/03/06 15:55:31;;;;;;;12.40;11.25;;;;;;;9.00;28.83;100767.66;10344631;28;20087;-61
2022/03/06 16:00:32;;;;;;;11.88;10.95;;;;;;;8.98;28.66;100782.84;10348921;28;20208;-62
2022/03/06 16:05:34;;;;;;;12.07;11.07;;;;;;;8.67;28.41;100768.88;10343933;28;20058;-60
2022/03/06 16:10:43;;;;;;;11.07;10.02;;;;;;;8.79;28.93;100778.69;10344147;28;20458;-63
2022/03/06 16:15:45;;;;;;;10.23;9.35;;;;;;;8.78;28.31;100763.75;10331813;28;20053;-61
2022/03/06 16:20:46;;;;;;;9.60;8.82;;;;;;;8.41;27.97;100779.34;10342856;28;20179;-61
2022/03/06 16:25:48;;;;;;;9.43;8.63;;;;;;;8.32;28.76;100779.91;10342720;28;20053;-61
2022/03/06 16:30:50;;;;;;;9.60;8.75;;;;;;;8.39;28.90;100783.88;10342813;28;20054;-61
2022/03/06 16:35:52;;;;;;;10.52;9.68;;;;;;;8.41;29.05;100789.09;10346444;28;20143;-62
2022/03/06 16:40:59;;;;;;;9.85;9.05;;;;;;;8.25;29.13;100775.94;10341587;28;20072;-61
2022/03/06 16:46:00;;;;;;;18.80;17.17;;;;;;;8.24;29.66;100783.06;10340853;28;20128;-61
2022/03/06 16:51:05;;;;;;;9.43;8.63;;;;;;;8.13;29.43;100780.19;10343549;28;20187;-60
2022/03/06 16:56:06;;;;;;;11.35;10.45;;;;;;;8.24;29.61;100787.47;10342658;28;20200;-60
2022/03/06 17:01:10;;;;;;;10.18;9.38;;;;;;;8.09;29.58;100789.28;10344666;28;20716;-59
2022/03/06 17:06:11;;;;;;;8.88;7.97;;;;;;;7.86;29.81;100762.38;10342722;28;20049;-61
2022/03/06 17:11:13;;;;;;;9.30;8.50;;;;;;;7.75;29.92;100765.69;10342587;28;20049;-63
2022/03/06 17:16:14;;;;;;;21.25;19.25;;;;;;;7.69;30.00;100779.31;10340382;28;20439;-62
2022/03/06 17:21:17;;;;;;;11.02;9.93;;;;;;;7.86;30.02;100788.88;10345816;28;20050;-61
2022/03/06 17:26:18;;;;;;;8.18;7.47;;;;;;;7.84;30.36;100797.91;10343906;28;20883;-62
2022/03/06 17:31:20;;;;;;;10.68;9.68;;;;;;;7.80;30.48;100805.16;10341786;28;20159;-62
2022/03/06 17:36:22;;;;;;;8.55;7.75;;;;;;;7.63;31.22;100794.72;10339087;28;20054;-62
2022/03/06 17:41:23;;;;;;;8.25;7.53;;;;;;;7.59;31.66;100812.59;10341052;28;20333;-62
2022/03/06 17:46:25;;;;;;;9.02;8.20;;;;;;;7.54;32.42;100830.56;10343496;28;20075;-62
2022/03/06 17:51:30;;;;;;;9.23;8.27;;;;;;;7.33;32.88;100825.56;10336422;28;20054;-61
2022/03/06 17:56:32;;;;;;;8.57;7.88;;;;;;;7.13;33.09;100789.66;10338283;28;20045;-61
2022/03/06 18:01:34;;;;;;;9.43;8.50;;;;;;;7.18;33.34;100834.41;10339095;28;20172;-61
2022/03/06 18:06:36;;;;;;;9.52;8.73;;;;;;;7.08;33.37;100826.13;10333741;28;20064;-60
2022/03/06 18:11:37;;;;;;;10.63;9.73;;;;;;;7.17;33.54;100840.63;10333093;28;20711;-60
2022/03/06 18:16:39;;;;;;;10.85;9.85;;;;;;;7.01;33.72;100838.88;10337317;28;20550;-58
2022/03/06 18:21:41;;;;;;;9.75;8.85;;;;;;;7.03;33.70;100834.31;10334901;28;20049;-59
2022/03/06 18:26:42;;;;;;;10.63;9.73;;;;;;;7.11;33.66;100833.03;10332574;28;20113;-59
2022/03/06 18:31:45;;;;;;;9.93;8.93;;;;;;;7.02;33.81;100842.34;10332698;28;20119;-59
2022/03/06 18:36:48;;;;;;;10.52;9.52;;;;;;;7.04;34.06;100846.63;10339338;28;20205;-62
2022/03/06 18:41:49;;;;;;;9.45;8.63;;;;;;;7.05;34.02;100850.97;10335168;28;20235;-61
2022/03/06 18:46:51;;;;;;;9.70;8.90;;;;;;;6.99;34.25;100845.19;10340945;28;20431;-60
2022/03/06 18:51:53;;;;;;;9.90;9.00;;;;;;;6.89;34.28;100855.41;10337677;28;20258;-60
2022/03/06 18:56:55;;;;;;;10.15;9.23;;;;;;;6.70;34.37;100856.44;10332859;28;20115;-62
2022/03/06 19:01:56;;;;;;;10.32;9.40;;;;;;;6.61;34.55;100858.75;10338277;28;20148;-59
2022/03/06 19:06:58;;;;;;;9.63;8.75;;;;;;;6.62;34.51;100863.94;10336098;28;20056;-59
2022/03/06 19:12:00;;;;;;;9.48;8.68;;;;;;;6.65;34.33;100862.91;10332496;28;20651;-61
2022/03/06 19:17:02;;;;;;;10.10;9.20;;;;;;;6.60;34.44;100871.09;10338251;28;20580;-61
2022/03/06 19:22:04;;;;;;;9.25;8.43;;;;;;;6.50;34.74;100885.75;10349078;28;20475;-60
2022/03/06 19:27:06;;;;;;;10.98;9.98;;;;;;;6.54;35.09;100887.28;10338051;28;20099;-60
2022/03/06 19:32:07;;;;;;;11.77;10.35;;;;;;;6.48;35.75;100891.13;10332522;28;20113;-59
2022/03/06 19:37:09;;;;;;;9.93;9.02;;;;;;;6.32;35.84;100892.84;10334915;28;20046;-61
2022/03/06 19:42:10;;;;;;;9.38;8.52;;;;;;;6.04;37.07;100888.19;10338259;28;20132;-62
2022/03/06 19:47:11;;;;;;;9.98;8.98;;;;;;;5.81;38.13;100898.94;10337870;28;20058;-61
2022/03/06 19:52:14;;;;;;;9.98;9.18;;;;;;;5.89;44.43;100901.19;10334261;28;20068;-60
2022/03/06 19:57:15;;;;;;;9.80;8.90;;;;;;;6.16;38.57;100861.94;10335744;28;20050;-60
2022/03/06 20:02:17;;;;;;;10.27;9.32;;;;;;;6.16;38.52;100903.41;10337785;28;20057;-60
2022/03/06 20:07:21;;;;;;;10.07;9.15;;;;;;;5.95;38.90;100903.53;10345596;28;20049;-60
2022/03/06 20:12:23;;;;;;;;;;;;;;;5.92;39.01;100918.69;10343564;28;20060;-61
2022/03/06 20:17:26;;;;;;;10.50;9.48;;;;;;;5.82;39.10;100905.94;10338629;28;19932;-60
2022/03/06 20:22:27;;;;;;;10.10;9.10;;;;;;;5.88;39.11;100928.53;10341848;28;20053;-59
2022/03/06 20:27:29;;;;;;;9.48;8.57;;;;;;;5.73;39.32;100938.09;10342312;28;20107;-62
2022/03/06 20:32:31;;;;;;;9.60;8.70;;;;;;;5.57;39.52;100942.41;10338996;28;20140;-60
2022/03/06 20:37:32;;;;;;;8.68;7.88;;;;;;;5.47;39.53;100937.56;10340329;28;20156;-60
2022/03/06 20:42:34;;;;;;;8.70;7.90;;;;;;;5.35;39.52;100924.13;10340335;28;20050;-61
2022/03/06 20:47:35;;;;;;;8.20;7.45;;;;;;;5.24;39.84;100946.59;10345597;28;20056;-60
2022/03/06 20:52:37;;;;;;;8.35;7.47;;;;;;;5.24;39.57;100951.00;10341236;28;20057;-61
2022/03/06 20:57:39;;;;;;;7.03;6.43;;;;;;;5.12;39.27;100952.47;10337189;28;20542;-61
2022/03/06 21:02:40;;;;;;;6.90;6.30;;;;;;;5.23;39.20;100960.72;10343811;28;20256;-61
2022/03/06 21:07:42;;;;;;;6.55;5.97;;;;;;;5.30;38.55;100962.16;10337511;28;20196;-61
2022/03/06 21:12:50;;;;;;;6.35;5.75;;;;;;;5.19;38.90;100963.56;10331943;28;20068;-61
2022/03/06 21:17:51;;;;;;;6.72;6.13;;;;;;;5.04;39.12;100966.00;10334518;28;20057;-61
2022/03/06 21:22:53;;;;;;;6.90;5.82;;;;;;;4.99;39.52;100964.50;10334585;28;20139;-61
2022/03/06 21:27:55;;;;;;;7.13;6.40;;;;;;;5.98;43.03;100965.97;10331763;28;20569;-60
2022/03/06 21:32:56;;;;;;;6.25;5.65;;;;;;;6.75;42.72;100947.94;10326012;28;20128;-62
2022/03/06 21:37:57;;;;;;;6.07;5.22;;;;;;;7.21;40.25;100971.94;10332667;28;20054;-59
2022/03/06 21:43:00;;;;;;;6.93;6.22;;;;;;;6.48;37.37;100982.84;10326119;28;20054;-62
2022/03/06 21:48:03;;;;;;;6.35;5.75;;;;;;;5.76;38.33;100966.16;10330656;28;20064;-59
2022/03/06 21:53:05;;;;;;;6.43;5.82;;;;;;;5.49;39.30;100985.03;10329236;28;20412;-59
2022/03/06 21:58:08;;;;;;;7.55;6.60;;;;;;;5.24;39.69;100988.84;10336850;28;20495;-59
2022/03/06 22:03:10;;;;;;;6.88;6.25;;;;;;;5.27;40.16;100993.97;10337087;28;20333;-60
2022/03/06 22:08:13;;;;;;;7.20;6.50;;;;;;;5.28;39.93;100990.41;10335306;28;20052;-63
2022/03/06 22:13:15;;;;;;;7.18;6.57;;;;;;;5.19;40.04;100990.81;10338907;28;20065;-62
2022/03/06 22:18:16;;;;;;;7.15;6.53;;;;;;;4.88;40.75;100981.69;10332711;28;20054;-59
2022/03/06 22:23:18;;;;;;;6.88;6.28;;;;;;;5.03;40.39;101000.38;10333273;28;20164;-61
2022/03/06 22:28:19;;;;;;;6.85;6.15;;;;;;;4.93;40.30;101000.78;10314329;28;20104;-63
2022/03/06 22:33:22;;;;;;;6.50;5.88;;;;;;;4.77;40.23;100994.47;10331951;28;20111;-63
2022/03/06 22:38:24;;;;;;;6.90;6.30;;;;;;;4.74;39.91;100976.16;10334343;28;20400;-64
2022/03/06 22:43:31;;;;;;;7.00;6.30;;;;;;;4.68;40.43;101002.81;10330353;28;20072;-61
2022/03/06 22:48:33;;;;;;;6.63;6.03;;;;;;;4.71;40.46;101005.31;10333288;28;20678;-63
2022/03/06 22:53:35;;;;;;;7.38;6.18;;;;;;;4.67;40.45;100999.31;10316836;28;20069;-66
2022/03/06 22:58:36;;;;;;;7.20;6.50;;;;;;;4.54;40.70;101004.25;10327131;28;21008;-64
2022/03/06 23:03:40;;;;;;;6.30;5.80;;;;;;;4.49;40.91;100995.72;10334406;28;22021;-64
2022/03/06 23:08:44;;;;;;;6.60;6.00;;;;;;;4.50;41.47;101015.00;10314296;28;20604;-64
2022/03/06 23:13:46;;;;;;;6.00;5.40;;;;;;;4.40;41.68;101001.38;10309351;28;20075;-63